createdAt,value
2024-05-09T00:00:01.763Z,-2.49
2024-05-09T00:01:11.460Z,-2.51
2024-05-09T00:02:13.897Z,-2.49
2024-05-09T00:03:16.398Z,-2.49
2024-05-09T00:04:18.920Z,-2.50
2024-05-09T00:05:21.436Z,-2.47
2024-05-09T00:06:23.894Z,-2.50
2024-05-09T00:07:26.086Z,-2.52
2024-05-09T00:08:28.503Z,-2.49
2024-05-09T00:09:30.802Z,-2.48
2024-05-09T00:10:36.980Z,-2.48
2024-05-09T00:11:41.170Z,-2.47
2024-05-09T00:12:43.393Z,-2.46
2024-05-09T00:13:45.508Z,-2.44
2024-05-09T00:14:48.077Z,-2.46
2024-05-09T00:15:50.320Z,-2.48
2024-05-09T00:16:52.644Z,-2.46
2024-05-09T00:17:55.201Z,-2.48
2024-05-09T00:18:57.713Z,-2.49
2024-05-09T00:20:00.213Z,-2.47
2024-05-09T00:21:06.296Z,-2.48
2024-05-09T00:22:08.613Z,-2.48
2024-05-09T00:23:12.504Z,-2.48
2024-05-09T00:24:15.450Z,-2.46
2024-05-09T00:25:17.637Z,-2.47
2024-05-09T00:26:19.861Z,-2.49
2024-05-09T00:27:22.989Z,-2.48
2024-05-09T00:28:26.115Z,-2.48
2024-05-09T00:29:28.384Z,-2.47
2024-05-09T00:30:34.695Z,-2.47
2024-05-09T00:31:38.898Z,-2.47
2024-05-09T00:32:41.243Z,-2.48
2024-05-09T00:33:43.836Z,-2.48
2024-05-09T00:34:46.628Z,-2.47
2024-05-09T00:35:48.898Z,-2.46
2024-05-09T00:36:51.063Z,-2.47
2024-05-09T00:37:53.352Z,-2.46
2024-05-09T00:38:55.459Z,-2.46
2024-05-09T00:39:57.879Z,-2.46
2024-05-09T00:41:00.032Z,-2.47
2024-05-09T00:42:02.330Z,-2.45
2024-05-09T00:43:05.101Z,-2.45
2024-05-09T00:44:08.491Z,-2.45
2024-05-09T00:45:10.612Z,-2.42
2024-05-09T00:46:13.476Z,-2.41
2024-05-09T00:47:15.854Z,-2.38
2024-05-09T00:48:20.773Z,-2.39
2024-05-09T00:49:25.845Z,-2.38
2024-05-09T00:50:35.700Z,-2.35
2024-05-09T00:51:42.778Z,-2.35
2024-05-09T00:52:46.485Z,-2.36
2024-05-09T00:53:49.392Z,-2.35
2024-05-09T00:54:51.721Z,-2.35
2024-05-09T00:55:56.146Z,-2.37
2024-05-09T00:56:58.552Z,-2.38
2024-05-09T00:58:01.142Z,-2.36
2024-05-09T00:59:03.992Z,-2.37
2024-05-09T01:00:18.387Z,-2.37
2024-05-09T01:01:29.809Z,-2.40
2024-05-09T01:02:32.861Z,-2.39
2024-05-09T01:03:35.401Z,-2.40
2024-05-09T01:04:37.820Z,-2.39
2024-05-09T01:05:40.591Z,-2.41
2024-05-09T01:06:43.386Z,-2.43
2024-05-09T01:07:45.686Z,-2.43
2024-05-09T01:08:48.286Z,-2.46
2024-05-09T01:09:50.775Z,-2.46
2024-05-09T01:10:53.153Z,-2.47
2024-05-09T01:11:55.710Z,-2.46
2024-05-09T01:12:57.841Z,-2.46
2024-05-09T01:14:00.135Z,-2.44
2024-05-09T01:15:02.478Z,-2.41
2024-05-09T01:16:06.381Z,-2.41
2024-05-09T01:17:08.963Z,-2.40
2024-05-09T01:18:13.367Z,-2.38
2024-05-09T01:19:23.636Z,-2.38
2024-05-09T01:20:36.968Z,-2.34
2024-05-09T01:21:44.438Z,-2.30
2024-05-09T01:22:47.607Z,-2.29
2024-05-09T01:23:49.783Z,-2.30
2024-05-09T01:24:52.905Z,-2.25
2024-05-09T01:25:55.149Z,-2.25
2024-05-09T01:26:57.628Z,-2.22
2024-05-09T01:28:00.134Z,-2.22
2024-05-09T01:29:02.796Z,-2.18
2024-05-09T01:30:09.238Z,-2.16
2024-05-09T01:31:16.463Z,-2.14
2024-05-09T01:32:18.829Z,-2.13
2024-05-09T01:33:21.359Z,-2.10
2024-05-09T01:34:23.725Z,-2.06
2024-05-09T01:35:25.962Z,-2.03
2024-05-09T01:36:28.211Z,-2.00
2024-05-09T01:37:30.538Z,-1.94
2024-05-09T01:38:32.691Z,-1.93
2024-05-09T01:39:35.193Z,-1.90
2024-05-09T01:40:39.859Z,-1.88
2024-05-09T01:41:42.908Z,-1.83
2024-05-09T01:42:45.212Z,-1.80
2024-05-09T01:43:47.666Z,-1.77
2024-05-09T01:44:49.796Z,-1.78
2024-05-09T01:45:51.962Z,-1.75
2024-05-09T01:46:54.321Z,-1.74
2024-05-09T01:47:56.777Z,-1.73
2024-05-09T01:48:59.541Z,-1.73
2024-05-09T01:50:03.313Z,-1.71
2024-05-09T01:51:05.983Z,-1.71
2024-05-09T01:52:08.294Z,-1.64
2024-05-09T01:53:12.670Z,-1.61
2024-05-09T01:54:15.405Z,-1.62
2024-05-09T01:55:17.564Z,-1.63
2024-05-09T01:56:19.935Z,-1.60
2024-05-09T01:57:22.198Z,-1.61
2024-05-09T01:58:25.341Z,-1.60
2024-05-09T01:59:27.843Z,-1.60
2024-05-09T02:00:38.751Z,-1.62
2024-05-09T02:01:56.289Z,-1.65
2024-05-09T02:03:00.733Z,-1.78
2024-05-09T02:04:03.365Z,-1.96
2024-05-09T02:05:06.474Z,-1.99
2024-05-09T02:06:08.938Z,-2.08
2024-05-09T02:07:11.276Z,-2.14
2024-05-09T02:08:19.465Z,-2.23
2024-05-09T02:09:22.317Z,-2.30
2024-05-09T02:10:31.719Z,-2.36
2024-05-09T02:11:44.530Z,-2.49
2024-05-09T02:12:46.703Z,-2.58
2024-05-09T02:13:49.317Z,-2.51
2024-05-09T02:14:52.048Z,-2.52
2024-05-09T02:15:56.131Z,-2.50
2024-05-09T02:16:58.495Z,-2.48
2024-05-09T02:18:21.150Z,-2.45
2024-05-09T02:19:23.645Z,-2.40
2024-05-09T02:20:33.414Z,-2.38
2024-05-09T02:21:39.027Z,-2.38
2024-05-09T02:22:41.122Z,-2.34
2024-05-09T02:23:43.479Z,-2.34
2024-05-09T02:24:45.745Z,-2.29
2024-05-09T02:25:49.165Z,-2.27
2024-05-09T02:26:51.521Z,-2.27
2024-05-09T02:27:54.254Z,-2.27
2024-05-09T02:28:56.482Z,-2.27
2024-05-09T02:29:58.740Z,-2.20
2024-05-09T02:31:00.940Z,-2.11
2024-05-09T02:32:03.475Z,-2.03
2024-05-09T02:33:06.588Z,-1.93
2024-05-09T02:34:09.185Z,-1.88
2024-05-09T02:35:11.883Z,-1.80
2024-05-09T02:36:14.101Z,-1.79
2024-05-09T02:37:16.355Z,-1.71
2024-05-09T02:38:18.590Z,-1.64
2024-05-09T02:39:20.778Z,-1.56
2024-05-09T02:40:33.044Z,-1.53
2024-05-09T02:41:39.119Z,-1.42
2024-05-09T02:42:41.522Z,-1.37
2024-05-09T02:43:43.752Z,-1.35
2024-05-09T02:44:46.047Z,-1.26
2024-05-09T02:45:48.287Z,-1.22
2024-05-09T02:46:50.941Z,-1.18
2024-05-09T02:47:53.434Z,-1.13
2024-05-09T02:48:55.842Z,-1.11
2024-05-09T02:49:58.114Z,-1.10
2024-05-09T02:51:02.869Z,-1.09
2024-05-09T02:52:05.587Z,-1.07
2024-05-09T02:53:09.314Z,-1.09
2024-05-09T02:54:12.828Z,-1.10
2024-05-09T02:55:15.105Z,-1.13
2024-05-09T02:56:17.345Z,-1.15
2024-05-09T02:57:19.546Z,-1.13
2024-05-09T02:58:21.761Z,-1.11
2024-05-09T02:59:24.015Z,-1.13
2024-05-09T03:00:34.813Z,-1.13
2024-05-09T03:01:41.671Z,-1.08
2024-05-09T03:02:47.301Z,-1.07
2024-05-09T03:03:51.167Z,-1.02
2024-05-09T03:04:53.740Z,-0.98
2024-05-09T03:05:55.957Z,-0.97
2024-05-09T03:06:58.208Z,-0.93
2024-05-09T03:08:00.634Z,-0.88
2024-05-09T03:09:04.987Z,-0.84
2024-05-09T03:10:14.907Z,-0.81
2024-05-09T03:11:25.666Z,-0.81
2024-05-09T03:12:31.169Z,-0.77
2024-05-09T03:13:33.294Z,-0.73
2024-05-09T03:14:35.652Z,-0.65
2024-05-09T03:15:38.089Z,-0.61
2024-05-09T03:16:40.375Z,-0.55
2024-05-09T03:17:42.828Z,-0.45
2024-05-09T03:18:45.606Z,-0.39
2024-05-09T03:19:47.809Z,-0.27
2024-05-09T03:20:50.110Z,-0.22
2024-05-09T03:21:52.243Z,-0.13
2024-05-09T03:22:56.754Z,-0.04
2024-05-09T03:23:59.246Z,0.06
2024-05-09T03:25:01.486Z,0.12
2024-05-09T03:26:09.736Z,0.11
2024-05-09T03:27:12.035Z,0.08
2024-05-09T03:28:14.334Z,0.14
2024-05-09T03:29:16.574Z,0.22
2024-05-09T03:30:26.186Z,0.19
2024-05-09T03:31:39.238Z,0.26
2024-05-09T03:32:43.581Z,0.28
2024-05-09T03:33:46.224Z,0.34
2024-05-09T03:34:48.564Z,0.39
2024-05-09T03:35:50.661Z,0.42
2024-05-09T03:36:53.175Z,0.36
2024-05-09T03:37:55.502Z,0.30
2024-05-09T03:38:58.270Z,0.28
2024-05-09T03:40:02.695Z,0.38
2024-05-09T03:41:07.105Z,0.41
2024-05-09T03:42:09.171Z,0.42
2024-05-09T03:43:11.460Z,0.40
2024-05-09T03:44:14.669Z,0.30
2024-05-09T03:45:17.087Z,0.35
2024-05-09T03:46:19.321Z,0.34
2024-05-09T03:47:21.795Z,0.30
2024-05-09T03:48:24.339Z,0.33
2024-05-09T03:49:27.158Z,0.39
2024-05-09T03:50:33.964Z,0.42
2024-05-09T03:51:38.377Z,0.47
2024-05-09T03:52:40.486Z,0.48
2024-05-09T03:53:42.754Z,0.54
2024-05-09T03:54:47.789Z,0.61
2024-05-09T03:55:50.122Z,0.63
2024-05-09T03:56:52.317Z,0.66
2024-05-09T03:57:54.788Z,0.66
2024-05-09T03:58:58.085Z,0.65
2024-05-09T04:00:00.390Z,0.59
2024-05-09T04:01:02.616Z,0.74
2024-05-09T04:02:06.684Z,0.77
2024-05-09T04:03:11.298Z,0.72
2024-05-09T04:04:15.295Z,0.75
2024-05-09T04:05:17.575Z,0.79
2024-05-09T04:06:26.610Z,0.79
2024-05-09T04:07:28.810Z,0.80
2024-05-09T04:08:31.158Z,0.88
2024-05-09T04:09:33.290Z,0.85
2024-05-09T04:10:35.912Z,0.80
2024-05-09T04:11:38.202Z,0.85
2024-05-09T04:12:40.529Z,0.87
2024-05-09T04:13:43.651Z,0.81
2024-05-09T04:14:46.040Z,0.74
2024-05-09T04:15:48.323Z,0.83
2024-05-09T04:16:50.759Z,0.93
2024-05-09T04:17:53.120Z,1.01
2024-05-09T04:18:55.600Z,1.04
2024-05-09T04:19:57.965Z,1.05
2024-05-09T04:21:00.426Z,1.03
2024-05-09T04:22:02.539Z,1.08
2024-05-09T04:23:05.847Z,1.08
2024-05-09T04:24:08.224Z,1.11
2024-05-09T04:25:10.540Z,1.20
2024-05-09T04:26:14.238Z,1.15
2024-05-09T04:27:16.363Z,1.20
2024-05-09T04:28:19.401Z,1.25
2024-05-09T04:29:21.810Z,1.28
2024-05-09T04:30:34.306Z,1.28
2024-05-09T04:31:40.931Z,1.33
2024-05-09T04:32:44.027Z,1.32
2024-05-09T04:33:46.721Z,1.33
2024-05-09T04:34:48.937Z,1.38
2024-05-09T04:35:51.323Z,1.36
2024-05-09T04:36:53.528Z,1.32
2024-05-09T04:37:57.458Z,1.36
2024-05-09T04:38:59.674Z,1.42
2024-05-09T04:40:02.203Z,1.44
2024-05-09T04:41:04.534Z,1.57
2024-05-09T04:42:07.040Z,1.69
2024-05-09T04:43:15.364Z,1.74
2024-05-09T04:44:18.651Z,1.76
2024-05-09T04:45:20.853Z,1.76
2024-05-09T04:46:23.002Z,1.89
2024-05-09T04:47:25.290Z,1.99
2024-05-09T04:48:28.063Z,2.06
2024-05-09T04:49:30.356Z,2.15
2024-05-09T04:50:37.434Z,2.13
2024-05-09T04:51:41.928Z,2.08
2024-05-09T04:52:44.308Z,2.08
2024-05-09T04:53:46.479Z,2.08
2024-05-09T04:54:48.878Z,2.03
2024-05-09T04:55:51.461Z,2.02
2024-05-09T04:56:53.716Z,1.96
2024-05-09T04:57:56.038Z,2.10
2024-05-09T04:58:58.327Z,2.19
2024-05-09T05:00:01.233Z,2.16
2024-05-09T05:01:06.793Z,2.07
2024-05-09T05:02:09.097Z,2.01
2024-05-09T05:03:14.637Z,2.00
2024-05-09T05:04:18.444Z,2.05
2024-05-09T05:05:20.738Z,2.10
2024-05-09T05:06:22.866Z,2.15
2024-05-09T05:07:25.237Z,2.16
2024-05-09T05:08:28.110Z,2.16
2024-05-09T05:09:30.392Z,2.19
2024-05-09T05:10:36.259Z,2.11
2024-05-09T05:11:39.647Z,2.02
2024-05-09T05:13:00.532Z,1.97
2024-05-09T05:14:03.111Z,1.95
2024-05-09T05:15:05.538Z,1.96
2024-05-09T05:16:07.982Z,1.95
2024-05-09T05:17:10.198Z,1.89
2024-05-09T05:18:12.514Z,1.90
2024-05-09T05:19:17.118Z,1.80
2024-05-09T05:20:27.407Z,1.73
2024-05-09T05:21:35.092Z,1.74
2024-05-09T05:22:37.291Z,1.68
2024-05-09T05:23:41.121Z,1.72
2024-05-09T05:24:43.889Z,1.66
2024-05-09T05:25:50.709Z,1.71
2024-05-09T05:26:53.170Z,1.77
2024-05-09T05:27:55.271Z,1.85
2024-05-09T05:28:57.715Z,1.81
2024-05-09T05:29:59.978Z,1.83
2024-05-09T05:31:02.225Z,1.89
2024-05-09T05:32:04.626Z,1.92
2024-05-09T05:33:10.311Z,1.86
2024-05-09T05:34:13.640Z,1.93
2024-05-09T05:35:16.120Z,1.90
2024-05-09T05:36:18.339Z,1.94
2024-05-09T05:37:20.555Z,1.94
2024-05-09T05:38:25.029Z,2.02
2024-05-09T05:39:29.930Z,2.10
2024-05-09T05:40:36.680Z,2.17
2024-05-09T05:41:40.543Z,2.25
2024-05-09T05:42:43.092Z,2.29
2024-05-09T05:43:45.316Z,2.34
2024-05-09T05:44:47.459Z,2.38
2024-05-09T05:45:50.062Z,2.38
2024-05-09T05:46:52.225Z,2.38
2024-05-09T05:47:55.241Z,2.43
2024-05-09T05:48:57.808Z,2.43
2024-05-09T05:50:00.393Z,2.47
2024-05-09T05:51:04.528Z,2.48
2024-05-09T05:52:07.272Z,2.55
2024-05-09T05:53:10.685Z,2.67
2024-05-09T05:54:13.047Z,2.73
2024-05-09T05:55:15.285Z,2.72
2024-05-09T05:56:17.663Z,2.88
2024-05-09T05:57:20.141Z,2.97
2024-05-09T05:58:22.740Z,3.02
2024-05-09T05:59:25.140Z,3.10
2024-05-09T06:00:34.435Z,3.21
2024-05-09T06:01:40.221Z,3.23
2024-05-09T06:02:42.508Z,3.12
2024-05-09T06:03:44.839Z,3.09
2024-05-09T06:04:47.512Z,3.24
2024-05-09T06:05:49.788Z,3.26
2024-05-09T06:06:52.544Z,3.35
2024-05-09T06:07:54.854Z,3.29
2024-05-09T06:08:57.395Z,3.17
2024-05-09T06:09:59.604Z,3.11
2024-05-09T06:11:03.232Z,3.06
2024-05-09T06:12:05.913Z,3.02
2024-05-09T06:13:11.581Z,2.96
2024-05-09T06:14:14.316Z,2.88
2024-05-09T06:15:16.594Z,2.82
2024-05-09T06:16:18.695Z,2.87
2024-05-09T06:17:21.191Z,2.81
2024-05-09T06:18:23.717Z,2.82
2024-05-09T06:19:26.425Z,2.85
2024-05-09T06:20:35.569Z,3.00
2024-05-09T06:21:40.152Z,3.10
2024-05-09T06:22:42.362Z,3.31
2024-05-09T06:23:49.382Z,3.40
2024-05-09T06:24:51.593Z,3.53
2024-05-09T06:25:53.957Z,3.56
2024-05-09T06:26:56.271Z,3.56
2024-05-09T06:28:00.364Z,3.57
2024-05-09T06:29:02.788Z,3.54
2024-05-09T06:30:08.159Z,3.45
2024-05-09T06:31:12.598Z,3.35
2024-05-09T06:32:16.078Z,3.25
2024-05-09T06:33:18.944Z,3.27
2024-05-09T06:34:21.939Z,3.29
2024-05-09T06:35:24.157Z,3.29
2024-05-09T06:36:26.475Z,3.33
2024-05-09T06:37:28.584Z,3.40
2024-05-09T06:38:31.110Z,3.38
2024-05-09T06:39:33.393Z,3.47
2024-05-09T06:40:38.615Z,3.38
2024-05-09T06:41:42.522Z,3.35
2024-05-09T06:42:45.016Z,3.48
2024-05-09T06:43:47.324Z,3.52
2024-05-09T06:44:49.646Z,3.44
2024-05-09T06:45:53.765Z,3.46
2024-05-09T06:46:58.182Z,3.39
2024-05-09T06:48:01.799Z,3.36
2024-05-09T06:49:08.680Z,3.27
2024-05-09T06:50:19.633Z,3.24
2024-05-09T06:51:25.845Z,3.22
2024-05-09T06:52:28.049Z,3.31
2024-05-09T06:53:30.407Z,3.30
2024-05-09T06:54:32.706Z,3.38
2024-05-09T06:55:35.209Z,3.41
2024-05-09T06:56:37.946Z,3.46
2024-05-09T06:57:43.018Z,3.49
2024-05-09T06:58:45.466Z,3.56
2024-05-09T06:59:47.844Z,3.55
2024-05-09T07:00:50.227Z,3.62
2024-05-09T07:01:52.823Z,3.63
2024-05-09T07:02:55.186Z,3.68
2024-05-09T07:03:57.676Z,3.69
2024-05-09T07:05:00.157Z,3.80
2024-05-09T07:06:02.738Z,3.86
2024-05-09T07:07:06.851Z,3.86
2024-05-09T07:08:09.866Z,3.73
2024-05-09T07:09:12.014Z,3.75
2024-05-09T07:10:21.940Z,3.72
2024-05-09T07:11:31.801Z,3.84
2024-05-09T07:12:34.610Z,3.82
2024-05-09T07:13:36.866Z,3.79
2024-05-09T07:14:39.389Z,3.79
2024-05-09T07:15:43.875Z,3.81
2024-05-09T07:16:46.463Z,3.65
2024-05-09T07:17:48.915Z,3.73
2024-05-09T07:18:55.173Z,3.79
2024-05-09T07:19:57.448Z,3.79
2024-05-09T07:20:59.885Z,3.87
2024-05-09T07:22:01.993Z,3.87
2024-05-09T07:23:04.449Z,3.90
2024-05-09T07:24:06.732Z,3.95
2024-05-09T07:25:09.012Z,3.92
2024-05-09T07:26:11.201Z,3.76
2024-05-09T07:27:14.084Z,3.83
2024-05-09T07:28:18.376Z,3.78
2024-05-09T07:29:21.028Z,3.75
2024-05-09T07:30:30.552Z,3.65
2024-05-09T07:31:36.324Z,3.74
2024-05-09T07:32:38.661Z,3.77
2024-05-09T07:33:41.402Z,3.71
2024-05-09T07:34:43.732Z,3.67
2024-05-09T07:35:46.517Z,3.76
2024-05-09T07:36:48.902Z,3.78
2024-05-09T07:37:51.300Z,3.81
2024-05-09T07:38:53.570Z,3.75
2024-05-09T07:40:00.663Z,3.73
2024-05-09T07:41:03.044Z,3.84
2024-05-09T07:42:05.823Z,3.96
2024-05-09T07:43:11.828Z,4.03
2024-05-09T07:44:14.454Z,4.03
2024-05-09T07:45:39.108Z,4.01
2024-05-09T07:47:47.690Z,3.94
2024-05-09T07:53:30.117Z,3.88
2024-05-09T07:53:49.902Z,3.73
2024-05-09T07:54:54.729Z,3.77
2024-05-09T07:55:57.498Z,3.77
2024-05-09T07:57:00.135Z,3.74
2024-05-09T07:58:02.658Z,3.88
2024-05-09T07:59:05.046Z,4.02
2024-05-09T08:00:11.754Z,4.08
2024-05-09T08:01:16.686Z,4.01
2024-05-09T08:02:19.223Z,4.12
2024-05-09T08:03:23.153Z,4.16
2024-05-09T08:04:26.805Z,4.16
2024-05-09T08:05:29.399Z,4.16
2024-05-09T08:06:32.622Z,4.29
2024-05-09T08:07:36.736Z,4.31
2024-05-09T08:08:39.092Z,4.27
2024-05-09T08:09:41.641Z,4.10
2024-05-09T08:10:44.427Z,4.02
2024-05-09T08:11:46.816Z,4.02
2024-05-09T08:12:49.301Z,3.99
2024-05-09T08:13:51.579Z,4.02
2024-05-09T08:14:55.675Z,4.00
2024-05-09T08:15:58.184Z,4.07
2024-05-09T08:17:00.504Z,4.00
2024-05-09T08:18:02.795Z,4.03
2024-05-09T08:19:07.350Z,4.06
2024-05-09T08:20:11.297Z,4.06
2024-05-09T08:21:13.668Z,4.10
2024-05-09T08:22:16.033Z,4.06
2024-05-09T08:23:18.380Z,4.02
2024-05-09T08:24:20.585Z,4.04
2024-05-09T08:25:23.194Z,4.07
2024-05-09T08:26:25.429Z,4.17
2024-05-09T08:27:27.851Z,4.04
2024-05-09T08:28:30.213Z,4.04
2024-05-09T08:29:32.551Z,4.12
2024-05-09T08:30:37.312Z,4.08
2024-05-09T08:31:40.755Z,4.10
2024-05-09T08:32:43.269Z,4.23
2024-05-09T08:33:48.072Z,4.29
2024-05-09T08:34:50.819Z,4.28
2024-05-09T08:35:53.358Z,4.38
2024-05-09T08:36:57.533Z,4.41
2024-05-09T08:38:04.239Z,4.50
2024-05-09T08:39:06.669Z,4.47
2024-05-09T08:40:16.933Z,4.52
2024-05-09T08:41:28.298Z,4.37
2024-05-09T08:42:35.718Z,4.42
2024-05-09T08:43:40.690Z,4.46
2024-05-09T08:44:45.102Z,4.44
2024-05-09T08:45:49.798Z,4.49
2024-05-09T08:46:52.511Z,4.58
2024-05-09T08:47:55.787Z,4.73
2024-05-09T08:49:00.066Z,4.81
2024-05-09T08:51:06.738Z,4.38
2024-05-09T08:52:09.026Z,4.36
2024-05-09T08:53:11.338Z,4.29
2024-05-09T08:54:13.634Z,4.26
2024-05-09T08:55:16.002Z,4.29
2024-05-09T08:56:20.715Z,4.36
2024-05-09T08:57:23.723Z,4.44
2024-05-09T08:58:27.030Z,4.62
2024-05-09T08:59:37.981Z,4.73
2024-05-09T09:00:42.415Z,4.66
2024-05-09T09:01:47.773Z,4.66
2024-05-09T09:02:52.171Z,4.67
2024-05-09T09:03:55.393Z,4.69
2024-05-09T09:05:08.098Z,4.61
2024-05-09T09:06:12.740Z,4.56
2024-05-09T09:07:15.357Z,4.53
2024-05-09T09:08:18.329Z,4.53
2024-05-09T09:09:20.633Z,4.67
2024-05-09T09:10:29.816Z,4.77
2024-05-09T09:11:34.280Z,4.69
2024-05-09T09:12:36.610Z,4.61
2024-05-09T09:13:38.979Z,4.57
2024-05-09T09:14:41.189Z,4.55
2024-05-09T09:15:50.434Z,4.63
2024-05-09T09:16:55.112Z,4.76
2024-05-09T09:18:01.321Z,4.86
2024-05-09T09:19:07.004Z,4.83
2024-05-09T09:20:14.399Z,4.84
2024-05-09T09:21:21.184Z,4.69
2024-05-09T09:22:23.327Z,4.58
2024-05-09T09:23:30.369Z,4.71
2024-05-09T09:24:33.047Z,4.55
2024-05-09T09:25:35.733Z,4.66
2024-05-09T09:26:38.112Z,4.76
2024-05-09T09:27:40.456Z,4.74
2024-05-09T09:28:45.138Z,4.44
2024-05-09T09:29:48.693Z,4.41
2024-05-09T09:30:51.270Z,4.44
2024-05-09T09:32:10.931Z,4.46
2024-05-09T09:33:13.786Z,4.57
2024-05-09T09:34:21.025Z,4.70
2024-05-09T09:35:35.450Z,4.78
2024-05-09T09:36:41.222Z,4.83
2024-05-09T09:37:49.162Z,5.01
2024-05-09T09:38:57.173Z,4.93
2024-05-09T09:40:04.719Z,4.65
2024-05-09T09:41:11.286Z,4.74
2024-05-09T09:42:18.826Z,4.40
2024-05-09T09:43:22.954Z,4.36
2024-05-09T09:44:31.057Z,4.40
2024-05-09T09:45:36.513Z,4.30
2024-05-09T09:46:42.986Z,4.24
2024-05-09T09:47:51.542Z,4.25
2024-05-09T09:48:54.474Z,3.97
2024-05-09T09:49:58.810Z,4.14
2024-05-09T09:51:03.932Z,4.14
2024-05-09T09:52:17.081Z,4.01
2024-05-09T09:53:25.615Z,3.85
2024-05-09T09:54:49.170Z,3.44
2024-05-09T09:55:56.568Z,3.53
2024-05-09T09:57:09.543Z,3.46
2024-05-09T09:58:17.077Z,3.49
2024-05-09T09:59:33.261Z,3.45
2024-05-09T10:00:47.722Z,3.46
2024-05-09T10:02:01.755Z,3.49
2024-05-09T10:03:06.270Z,3.33
2024-05-09T10:04:13.237Z,3.41
2024-05-09T10:05:17.412Z,3.50
2024-05-09T10:06:24.231Z,3.66
2024-05-09T10:07:33.074Z,3.78
2024-05-09T10:08:57.037Z,3.80
2024-05-09T10:10:07.039Z,3.84
2024-05-09T10:11:22.952Z,4.02
2024-05-09T10:12:41.512Z,3.94
2024-05-09T10:13:49.067Z,4.06
2024-05-09T10:14:56.769Z,3.91
2024-05-09T10:16:07.942Z,3.86
2024-05-09T10:17:15.246Z,3.84
2024-05-09T10:18:28.489Z,3.84
2024-05-09T10:19:35.696Z,3.94
2024-05-09T10:20:53.252Z,4.12
2024-05-09T10:22:10.169Z,4.21
2024-05-09T10:23:32.594Z,4.20
2024-05-09T10:25:05.525Z,4.23
2024-05-09T10:26:08.308Z,4.28
2024-05-09T10:27:10.739Z,4.34
2024-05-09T10:28:13.409Z,4.40
2024-05-09T10:29:22.329Z,4.57
2024-05-09T10:30:33.769Z,4.54
2024-05-09T10:31:42.571Z,4.53
2024-05-09T10:32:45.248Z,4.67
2024-05-09T10:33:50.474Z,4.75
2024-05-09T10:35:13.558Z,5.03
2024-05-09T10:36:23.032Z,5.12
2024-05-09T10:37:29.483Z,5.20
2024-05-09T10:38:31.982Z,5.25
2024-05-09T10:39:39.833Z,5.12
2024-05-09T10:40:43.850Z,5.05
2024-05-09T10:41:46.529Z,4.98
2024-05-09T10:42:48.966Z,4.79
2024-05-09T10:43:58.631Z,4.70
2024-05-09T10:45:02.029Z,4.50
2024-05-09T10:46:09.963Z,4.43
2024-05-09T10:47:12.722Z,4.27
2024-05-09T10:48:15.472Z,4.14
2024-05-09T10:49:18.502Z,4.19
2024-05-09T10:50:28.107Z,4.40
2024-05-09T10:51:31.516Z,4.36
2024-05-09T10:52:35.147Z,4.53
2024-05-09T10:53:43.745Z,4.67
2024-05-09T10:54:49.677Z,4.92
2024-05-09T10:56:02.183Z,4.81
2024-05-09T10:57:07.859Z,4.93
2024-05-09T10:58:18.544Z,4.99
2024-05-09T10:59:23.263Z,4.87
2024-05-09T11:00:35.773Z,4.82
2024-05-09T11:01:49.015Z,4.63
2024-05-09T11:03:01.186Z,4.39
2024-05-09T11:04:08.888Z,4.40
2024-05-09T11:05:12.664Z,4.26
2024-05-09T11:06:20.097Z,4.17
2024-05-09T11:07:30.133Z,4.20
2024-05-09T11:08:44.218Z,4.08
2024-05-09T11:09:47.053Z,3.81
2024-05-09T11:11:00.501Z,3.59
2024-05-09T11:12:05.374Z,3.77
2024-05-09T11:13:11.543Z,3.62
2024-05-09T11:14:48.678Z,3.54
2024-05-09T11:15:44.093Z,3.24
2024-05-09T11:16:53.843Z,3.34
2024-05-09T11:17:59.121Z,3.24
2024-05-09T11:19:08.133Z,3.10
2024-05-09T11:20:16.976Z,3.15
2024-05-09T11:21:33.779Z,3.23
2024-05-09T11:22:46.504Z,3.37
2024-05-09T11:23:51.729Z,3.68
2024-05-09T11:25:01.266Z,3.81
2024-05-09T11:26:12.291Z,3.98
2024-05-09T11:27:16.307Z,4.15
2024-05-09T11:28:19.426Z,4.25
2024-05-09T11:29:22.487Z,4.07
2024-05-09T11:30:32.542Z,3.69
2024-05-09T11:31:46.400Z,3.66
2024-05-09T11:32:55.557Z,3.67
2024-05-09T11:33:58.404Z,3.70
2024-05-09T11:35:13.277Z,3.86
2024-05-09T11:36:19.612Z,4.04
2024-05-09T11:37:26.081Z,4.39
2024-05-09T11:38:43.368Z,4.32
2024-05-09T11:39:50.851Z,4.16
2024-05-09T11:41:08.869Z,4.12
2024-05-09T11:42:19.851Z,4.04
2024-05-09T11:43:37.872Z,4.22
2024-05-09T11:44:51.688Z,4.01
2024-05-09T11:45:56.186Z,3.84
2024-05-09T11:47:00.566Z,3.65
2024-05-09T11:48:04.971Z,3.55
2024-05-09T11:49:28.181Z,3.49
2024-05-09T11:50:35.405Z,3.34
2024-05-09T11:51:43.871Z,3.31
2024-05-09T11:52:51.213Z,3.37
2024-05-09T11:54:04.553Z,3.41
2024-05-09T11:55:42.382Z,3.59
2024-05-09T11:57:14.598Z,3.66
2024-05-09T11:58:43.481Z,3.60
2024-05-09T12:00:09.395Z,3.69
2024-05-09T12:01:15.321Z,4.01
2024-05-09T12:02:17.974Z,4.21
2024-05-09T12:03:22.343Z,4.36
2024-05-09T12:04:27.321Z,4.21
2024-05-09T12:05:29.769Z,4.13
2024-05-09T12:06:34.205Z,4.27
2024-05-09T12:07:38.717Z,4.26
2024-05-09T12:08:44.638Z,4.31
2024-05-09T12:09:47.520Z,4.36
2024-05-09T12:10:50.409Z,4.28
2024-05-09T12:11:53.008Z,4.63
2024-05-09T12:12:55.599Z,5.09
2024-05-09T12:13:57.990Z,5.42
2024-05-09T12:15:00.515Z,5.74
2024-05-09T12:16:03.039Z,5.69
2024-05-09T12:17:06.021Z,5.48
2024-05-09T12:18:08.687Z,5.75
2024-05-09T12:19:11.465Z,5.75
2024-05-09T12:20:21.489Z,6.11
2024-05-09T12:21:40.649Z,6.50
2024-05-09T12:22:52.707Z,6.47
2024-05-09T12:23:57.751Z,6.68
2024-05-09T12:25:07.449Z,6.46
2024-05-09T12:26:13.505Z,5.38
2024-05-09T12:27:19.242Z,5.20
2024-05-09T12:28:26.632Z,5.20
2024-05-09T12:29:29.485Z,5.37
2024-05-09T12:30:37.828Z,5.07
2024-05-09T12:31:42.592Z,5.08
2024-05-09T12:32:50.515Z,5.34
2024-05-09T12:33:54.939Z,5.16
2024-05-09T12:35:05.089Z,5.18
2024-05-09T12:36:10.688Z,5.46
2024-05-09T12:37:20.774Z,5.53
2024-05-09T12:38:26.701Z,5.65
2024-05-09T12:39:29.515Z,5.99
2024-05-09T12:40:42.184Z,6.03
2024-05-09T12:41:44.987Z,6.22
2024-05-09T12:42:58.173Z,5.55
2024-05-09T12:44:10.575Z,5.86
2024-05-09T12:45:13.346Z,6.01
2024-05-09T12:46:35.504Z,5.94
2024-05-09T12:47:38.927Z,5.54
2024-05-09T12:48:46.379Z,5.97
2024-05-09T12:49:49.396Z,5.94
2024-05-09T12:50:52.169Z,5.92
2024-05-09T12:51:55.127Z,5.90
2024-05-09T12:52:57.844Z,5.34
2024-05-09T12:54:00.801Z,5.28
2024-05-09T12:55:06.222Z,4.96
2024-05-09T12:56:09.523Z,4.85
2024-05-09T12:57:11.935Z,4.73
2024-05-09T12:58:14.575Z,4.59
2024-05-09T12:59:17.048Z,4.47
2024-05-09T13:00:24.130Z,4.58
2024-05-09T13:01:33.530Z,4.22
2024-05-09T13:02:36.281Z,4.42
2024-05-09T13:03:38.807Z,4.49
2024-05-09T13:04:41.614Z,4.48
2024-05-09T13:05:45.374Z,4.73
2024-05-09T13:06:48.272Z,4.87
2024-05-09T13:07:50.598Z,5.00
2024-05-09T13:08:53.185Z,5.27
2024-05-09T13:09:55.518Z,5.55
2024-05-09T13:10:59.006Z,5.64
2024-05-09T13:12:01.374Z,5.48
2024-05-09T13:13:03.702Z,5.42
2024-05-09T13:14:05.848Z,5.28
2024-05-09T13:15:08.299Z,5.16
2024-05-09T13:16:10.673Z,4.99
2024-05-09T13:17:12.982Z,4.88
2024-05-09T13:18:15.249Z,4.68
2024-05-09T13:19:18.373Z,4.53
2024-05-09T13:20:29.161Z,4.54
2024-05-09T13:21:35.381Z,4.73
2024-05-09T13:22:38.300Z,4.69
2024-05-09T13:23:40.658Z,4.50
2024-05-09T13:24:42.965Z,4.56
2024-05-09T13:25:45.562Z,4.72
2024-05-09T13:26:47.731Z,4.72
2024-05-09T13:27:51.189Z,4.63
2024-05-09T13:28:53.304Z,4.85
2024-05-09T13:29:57.521Z,5.07
2024-05-09T13:31:00.098Z,5.05
2024-05-09T13:32:02.557Z,4.99
2024-05-09T13:33:05.191Z,4.76
2024-05-09T13:34:07.861Z,4.52
2024-05-09T13:35:10.362Z,4.51
2024-05-09T13:36:13.163Z,4.58
2024-05-09T13:37:15.613Z,4.42
2024-05-09T13:38:19.262Z,4.39
2024-05-09T13:39:21.763Z,4.16
2024-05-09T13:40:32.144Z,4.16
2024-05-09T13:41:36.933Z,4.18
2024-05-09T13:42:39.207Z,4.19
2024-05-09T13:43:41.580Z,4.19
2024-05-09T13:44:43.944Z,4.20
2024-05-09T13:45:46.819Z,4.15
2024-05-09T13:46:53.891Z,4.15
2024-05-09T13:47:56.499Z,4.09
2024-05-09T13:48:59.279Z,3.85
2024-05-09T13:50:02.689Z,3.90
2024-05-09T13:51:06.184Z,3.78
2024-05-09T13:52:08.539Z,3.77
2024-05-09T13:53:10.970Z,3.74
2024-05-09T13:54:13.180Z,3.74
2024-05-09T13:55:15.754Z,3.76
2024-05-09T13:56:18.141Z,3.63
2024-05-09T13:57:20.511Z,3.71
2024-05-09T13:58:23.740Z,3.70
2024-05-09T13:59:26.491Z,3.59
2024-05-09T14:00:41.768Z,3.69
2024-05-09T14:01:49.277Z,3.62
2024-05-09T14:02:51.770Z,3.59
2024-05-09T14:03:54.171Z,3.65
2024-05-09T14:04:56.497Z,3.58
2024-05-09T14:05:59.719Z,3.62
2024-05-09T14:07:02.043Z,3.67
2024-05-09T14:08:04.833Z,3.59
2024-05-09T14:09:09.848Z,3.64
2024-05-09T14:10:19.921Z,3.70
2024-05-09T14:11:28.003Z,3.61
2024-05-09T14:12:30.375Z,3.71
2024-05-09T14:13:32.669Z,3.66
2024-05-09T14:14:34.917Z,3.58
2024-05-09T14:15:37.877Z,3.28
2024-05-09T14:16:40.488Z,3.17
2024-05-09T14:17:42.823Z,3.34
2024-05-09T14:18:45.357Z,3.44
2024-05-09T14:19:47.549Z,3.31
2024-05-09T14:20:49.845Z,3.31
2024-05-09T14:21:52.124Z,3.19